createdAt,value
2023-03-02T00:02:01.442Z,26.90
2023-03-02T00:04:39.599Z,38.60
2023-03-02T00:07:13.977Z,43.70
2023-03-02T00:09:43.321Z,32.00
2023-03-02T00:12:12.937Z,25.10
2023-03-02T00:14:41.351Z,35.90
2023-03-02T00:17:10.720Z,37.80
2023-03-02T00:19:39.264Z,34.30
2023-03-02T00:22:10.077Z,38.10
2023-03-02T00:24:39.181Z,32.20
2023-03-02T00:27:07.515Z,33.30
2023-03-02T00:29:35.896Z,35.40
2023-03-02T00:32:04.395Z,36.70
2023-03-02T00:34:32.718Z,32.30
2023-03-02T00:37:01.031Z,34.70
2023-03-02T00:39:30.522Z,30.90
2023-03-02T00:41:58.895Z,31.00
2023-03-02T00:44:27.188Z,32.10
2023-03-02T00:46:56.035Z,37.00
2023-03-02T00:49:24.490Z,35.10
2023-03-02T00:51:52.865Z,31.80
2023-03-02T00:54:21.164Z,34.40
2023-03-02T00:56:49.628Z,33.70
2023-03-02T00:59:28.117Z,32.20
2023-03-02T01:02:11.172Z,34.40
2023-03-02T01:04:42.270Z,36.90
2023-03-02T01:07:15.158Z,38.10
2023-03-02T01:09:45.646Z,34.90
2023-03-02T01:12:14.981Z,32.10
2023-03-02T01:14:47.822Z,31.60
2023-03-02T01:17:16.770Z,40.70
2023-03-02T01:19:45.138Z,34.50
2023-03-02T01:22:13.799Z,33.80
2023-03-02T01:24:42.089Z,35.90
2023-03-02T01:27:10.947Z,32.60
2023-03-02T01:29:39.468Z,33.40
2023-03-02T01:32:08.010Z,34.30
2023-03-02T01:34:36.486Z,32.10
2023-03-02T01:37:04.878Z,32.60
2023-03-02T01:39:33.313Z,31.80
2023-03-02T01:42:01.612Z,36.80
2023-03-02T01:44:45.440Z,33.40
2023-03-02T01:47:32.424Z,31.60
2023-03-02T01:50:24.033Z,34.00
2023-03-02T01:52:55.787Z,33.50
2023-03-02T01:55:29.606Z,29.40
2023-03-02T01:57:59.539Z,26.70
2023-03-02T02:00:34.385Z,38.80
2023-03-02T02:03:11.040Z,34.80
2023-03-02T02:05:46.661Z,36.40
2023-03-02T02:08:15.213Z,30.00
2023-03-02T02:10:43.694Z,31.60
2023-03-02T02:13:12.523Z,32.70
2023-03-02T02:15:41.643Z,33.60
2023-03-02T02:18:10.501Z,32.00
2023-03-02T02:20:45.478Z,30.70
2023-03-02T02:23:28.761Z,28.90
2023-03-02T02:26:05.853Z,25.90
2023-03-02T02:28:51.737Z,25.70
2023-03-02T02:31:38.506Z,32.90
2023-03-02T02:34:38.401Z,29.20
2023-03-02T02:37:44.895Z,32.30
2023-03-02T02:40:23.432Z,24.90
2023-03-02T02:42:53.936Z,25.60
2023-03-02T02:45:27.712Z,27.90
2023-03-02T02:47:57.621Z,35.00
2023-03-02T02:50:32.513Z,36.20
2023-03-02T02:53:13.753Z,39.60
2023-03-02T02:55:43.002Z,41.70
2023-03-02T02:58:25.250Z,40.00
2023-03-02T03:00:54.903Z,35.00
2023-03-02T03:03:34.668Z,35.00
2023-03-02T03:06:19.646Z,29.00
2023-03-02T03:08:56.149Z,32.70
2023-03-02T03:11:42.657Z,32.50
2023-03-02T03:14:19.044Z,35.50
2023-03-02T03:16:51.198Z,32.00
2023-03-02T03:19:33.693Z,28.70
2023-03-02T03:22:02.511Z,28.00
2023-03-02T03:24:35.670Z,30.00
2023-03-02T03:27:06.795Z,33.10
2023-03-02T03:29:39.664Z,33.20
2023-03-02T03:32:09.090Z,31.80
2023-03-02T03:34:41.812Z,35.80
2023-03-02T03:37:19.895Z,42.20
2023-03-02T03:39:48.556Z,33.70
2023-03-02T03:42:17.593Z,34.40
2023-03-02T03:44:46.484Z,36.80
2023-03-02T03:47:14.903Z,30.30
2023-03-02T03:49:43.676Z,34.00
2023-03-02T03:52:12.470Z,28.10
2023-03-02T03:54:40.994Z,24.60
2023-03-02T03:57:12.199Z,35.70
2023-03-02T03:59:40.935Z,32.00
2023-03-02T04:02:09.315Z,30.50
2023-03-02T04:04:43.181Z,36.30
2023-03-02T04:07:15.243Z,24.30
2023-03-02T04:09:44.645Z,23.70
2023-03-02T04:12:14.704Z,30.70
2023-03-02T04:14:51.212Z,27.90
2023-03-02T04:17:19.559Z,33.30
2023-03-02T04:19:49.948Z,35.10
2023-03-02T04:22:20.196Z,38.30
2023-03-02T04:24:50.149Z,37.50
2023-03-02T04:27:19.374Z,39.60
2023-03-02T04:29:48.520Z,30.90
2023-03-02T04:32:17.397Z,31.60
2023-03-02T04:34:49.363Z,31.30
2023-03-02T04:37:17.847Z,31.70
2023-03-02T04:39:50.278Z,37.10
2023-03-02T04:42:21.812Z,37.10
2023-03-02T04:44:50.255Z,40.00
2023-03-02T04:47:18.633Z,35.40
2023-03-02T04:49:47.030Z,37.20
2023-03-02T04:52:15.385Z,29.50
2023-03-02T04:54:43.778Z,32.00
2023-03-02T04:57:12.200Z,33.40
2023-03-02T04:59:40.528Z,24.90
2023-03-02T05:02:09.246Z,28.10
2023-03-02T05:04:38.046Z,31.60
2023-03-02T05:07:06.529Z,36.20
2023-03-02T05:09:34.968Z,30.80
2023-03-02T05:12:03.725Z,31.60
2023-03-02T05:14:32.141Z,28.30
2023-03-02T05:17:00.520Z,35.70
2023-03-02T05:19:29.031Z,32.60
2023-03-02T05:21:57.554Z,33.80
2023-03-02T05:24:26.256Z,32.10
2023-03-02T05:26:54.849Z,29.30
2023-03-02T05:29:23.178Z,32.10
2023-03-02T05:31:51.839Z,21.20
2023-03-02T05:34:20.237Z,26.90
2023-03-02T05:36:48.626Z,36.90
2023-03-02T05:39:16.922Z,32.60
2023-03-02T05:41:45.376Z,27.50
2023-03-02T05:44:13.844Z,43.90
2023-03-02T05:46:42.276Z,29.30
2023-03-02T05:49:10.884Z,31.90
2023-03-02T05:51:39.236Z,30.40
2023-03-02T05:54:07.556Z,34.00
2023-03-02T05:56:35.994Z,39.20
2023-03-02T05:59:04.488Z,37.60
2023-03-02T06:01:33.162Z,35.50
2023-03-02T06:04:01.697Z,36.60
2023-03-02T06:06:31.698Z,33.70
2023-03-02T06:09:01.621Z,36.10
2023-03-02T06:11:30.524Z,37.10
2023-03-02T06:13:58.868Z,38.50
2023-03-02T06:16:27.252Z,29.90
2023-03-02T06:18:55.598Z,23.10
2023-03-02T06:21:23.973Z,28.10
2023-03-02T06:23:52.315Z,27.00
2023-03-02T06:26:20.803Z,31.30
2023-03-02T06:28:53.177Z,27.20
2023-03-02T06:31:22.437Z,25.20
2023-03-02T06:33:51.055Z,30.60
2023-03-02T06:36:19.563Z,29.40
2023-03-02T06:38:48.031Z,29.80
2023-03-02T06:41:17.269Z,30.20
2023-03-02T06:43:46.302Z,25.10
2023-03-02T06:46:14.637Z,25.40
2023-03-02T06:48:42.991Z,32.90
2023-03-02T06:51:12.796Z,23.60
2023-03-02T06:53:41.217Z,23.60
2023-03-02T06:56:10.041Z,22.00
2023-03-02T06:58:38.554Z,25.40
2023-03-02T07:01:07.999Z,25.60
2023-03-02T07:03:36.920Z,20.30
2023-03-02T07:06:06.253Z,21.50
2023-03-02T07:08:34.904Z,22.10
2023-03-02T07:11:12.465Z,22.70
2023-03-02T07:13:40.953Z,22.80
2023-03-02T07:16:16.061Z,19.10
2023-03-02T07:18:44.532Z,21.10
2023-03-02T07:21:12.934Z,21.20
2023-03-02T07:23:41.282Z,18.70
2023-03-02T07:26:09.744Z,24.50
2023-03-02T07:28:39.818Z,23.80
2023-03-02T07:31:09.493Z,27.80
2023-03-02T07:33:40.139Z,25.80
2023-03-02T07:36:09.299Z,25.50
2023-03-02T07:38:38.788Z,24.10
2023-03-02T07:41:09.394Z,26.40
2023-03-02T07:43:38.210Z,21.80
2023-03-02T07:46:07.088Z,21.20
2023-03-02T07:48:35.518Z,19.90
2023-03-02T07:51:06.599Z,21.20
2023-03-02T07:53:35.004Z,19.80
2023-03-02T07:56:11.637Z,20.50
2023-03-02T07:58:40.066Z,19.70
2023-03-02T08:01:09.001Z,19.40
2023-03-02T08:03:37.776Z,19.00
2023-03-02T08:06:12.360Z,21.10
2023-03-02T08:08:40.750Z,20.90
2023-03-02T08:11:13.453Z,16.90
2023-03-02T08:13:42.788Z,13.20
2023-03-02T08:16:13.579Z,14.80
2023-03-02T08:18:43.294Z,11.70
2023-03-02T08:21:18.792Z,17.90
2023-03-02T08:23:47.720Z,14.20
2023-03-02T08:26:20.403Z,14.60
2023-03-02T08:28:48.996Z,13.60
2023-03-02T08:31:17.424Z,16.40
2023-03-02T08:33:46.434Z,16.50
2023-03-02T08:36:18.318Z,8.30
2023-03-02T08:38:48.297Z,10.80
2023-03-02T08:41:22.430Z,12.90
2023-03-02T08:46:22.772Z,14.00
2023-03-02T08:48:51.458Z,11.80
2023-03-02T08:51:23.906Z,10.00
2023-03-02T08:53:55.554Z,7.30
2023-03-02T08:56:28.537Z,13.10
2023-03-02T08:59:02.462Z,12.10
2023-03-02T09:01:34.891Z,11.90
2023-03-02T09:04:07.095Z,10.80
2023-03-02T09:06:44.270Z,11.30
2023-03-02T09:09:15.121Z,13.00
2023-03-02T09:11:45.091Z,12.50
2023-03-02T09:14:13.892Z,10.60
2023-03-02T09:16:42.297Z,12.70
2023-03-02T09:19:12.832Z,7.60
2023-03-02T09:21:41.229Z,11.10
2023-03-02T09:24:09.832Z,10.50
2023-03-02T09:26:39.240Z,13.30
2023-03-02T09:29:07.773Z,9.90
2023-03-02T09:31:37.500Z,12.20
2023-03-02T09:34:06.395Z,7.60
2023-03-02T09:36:35.234Z,13.20
2023-03-02T09:39:08.614Z,7.10
2023-03-02T09:42:16.415Z,8.40
2023-03-02T09:45:13.940Z,10.30
2023-03-02T09:47:53.199Z,10.30
2023-03-02T09:50:37.267Z,9.90
2023-03-02T09:54:20.962Z,9.90
2023-03-02T09:58:40.212Z,9.20
2023-03-02T10:03:11.402Z,8.50
2023-03-02T10:07:34.121Z,8.70
2023-03-02T10:11:53.471Z,9.00
2023-03-02T10:16:12.597Z,8.20
2023-03-02T10:19:32.496Z,5.30
2023-03-02T10:22:27.228Z,7.50
2023-03-02T10:25:48.790Z,6.10
2023-03-02T10:28:26.434Z,6.50
2023-03-02T10:31:08.010Z,6.70
2023-03-02T10:33:40.674Z,7.40
2023-03-02T10:36:30.121Z,5.80
2023-03-02T10:39:01.033Z,7.80
2023-03-02T10:41:40.900Z,8.30
2023-03-02T10:44:28.569Z,6.20
2023-03-02T10:46:57.372Z,8.80
2023-03-02T10:49:32.254Z,6.40
2023-03-02T10:52:03.703Z,6.70
2023-03-02T10:54:34.680Z,7.30
2023-03-02T10:57:25.199Z,5.80
2023-03-02T10:59:53.704Z,7.10
2023-03-02T11:02:25.356Z,7.00
2023-03-02T11:05:10.895Z,6.00
2023-03-02T11:07:39.507Z,8.40
2023-03-02T11:10:20.486Z,8.00
2023-03-02T11:12:51.919Z,4.90
2023-03-02T11:15:53.160Z,5.40
2023-03-02T11:18:27.601Z,6.70
2023-03-02T11:21:08.564Z,6.00
2023-03-02T11:23:44.488Z,6.00
2023-03-02T11:26:19.109Z,7.90
2023-03-02T11:29:14.607Z,8.50
2023-03-02T11:31:49.407Z,7.20
2023-03-02T11:35:03.042Z,10.50
2023-03-02T11:37:45.444Z,6.60
2023-03-02T11:40:26.697Z,8.40
2023-03-02T11:42:58.390Z,6.60
2023-03-02T11:45:32.799Z,8.50
2023-03-02T11:48:15.761Z,8.40
2023-03-02T11:51:11.840Z,6.10
2023-03-02T11:53:47.613Z,5.40
2023-03-02T11:56:16.933Z,3.10
2023-03-02T11:58:52.847Z,8.00
2023-03-02T12:01:26.805Z,3.40
2023-03-02T12:06:44.224Z,4.60
2023-03-02T12:09:37.818Z,7.20
2023-03-02T12:12:35.319Z,5.80
2023-03-02T12:15:04.353Z,6.20
2023-03-02T12:17:35.319Z,6.90
2023-03-02T12:20:28.332Z,4.40
2023-03-02T12:23:09.109Z,8.00
2023-03-02T12:25:43.989Z,7.20
2023-03-02T12:28:30.178Z,7.50
2023-03-02T12:31:10.729Z,5.60
2023-03-02T12:33:51.706Z,2.80
2023-03-02T12:36:39.856Z,5.60
2023-03-02T12:39:43.124Z,6.00
2023-03-02T12:42:39.329Z,4.00
2023-03-02T12:45:36.817Z,6.60
2023-03-02T12:48:36.397Z,8.20
2023-03-02T12:51:13.082Z,5.90
2023-03-02T12:53:41.770Z,7.30
2023-03-02T12:56:10.287Z,6.30
2023-03-02T12:58:38.778Z,5.20
2023-03-02T13:01:07.228Z,5.60
2023-03-02T13:03:48.017Z,5.10
2023-03-02T13:06:19.648Z,7.30
2023-03-02T13:08:58.528Z,5.20
2023-03-02T13:11:36.950Z,7.90
2023-03-02T13:14:27.557Z,5.70
2023-03-02T13:17:03.034Z,5.10
2023-03-02T13:19:33.051Z,6.70
2023-03-02T13:22:01.775Z,5.90
2023-03-02T13:24:50.275Z,6.60
2023-03-02T13:27:24.723Z,8.70
2023-03-02T13:29:55.819Z,5.70
2023-03-02T13:32:35.432Z,4.90
2023-03-02T13:35:15.096Z,6.00
2023-03-02T13:37:44.391Z,5.20
2023-03-02T13:40:22.253Z,5.20
2023-03-02T13:42:51.470Z,4.60
2023-03-02T13:45:31.147Z,5.90
2023-03-02T13:48:12.992Z,6.70
2023-03-02T13:50:53.392Z,5.90
2023-03-02T13:53:22.565Z,5.50
2023-03-02T13:55:54.531Z,6.90
2023-03-02T13:58:24.867Z,6.20
2023-03-02T14:00:53.491Z,6.40
2023-03-02T14:03:29.668Z,7.30
2023-03-02T14:05:59.684Z,7.00
2023-03-02T14:08:28.206Z,5.20
2023-03-02T14:10:59.901Z,8.90
2023-03-02T14:13:41.360Z,5.00
2023-03-02T14:16:14.688Z,5.20
2023-03-02T14:18:49.499Z,6.50
2023-03-02T14:21:22.493Z,6.40
2023-03-02T14:23:52.759Z,5.70
2023-03-02T14:26:39.524Z,5.50
2023-03-02T14:29:22.866Z,6.00
2023-03-02T14:31:51.943Z,5.70
2023-03-02T14:34:20.646Z,5.10
2023-03-02T14:36:54.414Z,6.70
2023-03-02T14:39:37.228Z,5.40
2023-03-02T14:42:11.541Z,9.60
2023-03-02T14:44:42.026Z,6.30
2023-03-02T14:47:10.933Z,8.00
2023-03-02T14:49:39.833Z,7.00
2023-03-02T14:52:25.094Z,7.40
2023-03-02T14:54:59.361Z,7.70
2023-03-02T14:57:30.443Z,6.40
2023-03-02T15:00:00.156Z,7.10
2023-03-02T15:02:29.032Z,6.40
2023-03-02T15:04:57.886Z,5.70
2023-03-02T15:07:28.947Z,9.60
2023-03-02T15:09:58.736Z,10.40
2023-03-02T15:12:27.242Z,8.80
2023-03-02T15:14:55.741Z,9.70
2023-03-02T15:17:24.175Z,7.00
2023-03-02T15:19:52.969Z,10.00
2023-03-02T15:22:21.433Z,5.70
2023-03-02T15:24:49.949Z,6.20
2023-03-02T15:27:18.549Z,4.80
2023-03-02T15:29:48.524Z,5.80
2023-03-02T15:32:17.675Z,7.30
2023-03-02T15:34:46.336Z,6.80
2023-03-02T15:37:15.603Z,5.60
2023-03-02T15:39:44.686Z,7.40
2023-03-02T15:42:14.071Z,6.20
2023-03-02T15:44:42.659Z,7.10
2023-03-02T15:47:11.433Z,7.90
2023-03-02T15:49:40.258Z,8.30
2023-03-02T15:52:10.005Z,4.90
2023-03-02T15:54:38.708Z,7.90
2023-03-02T15:57:07.786Z,6.60
2023-03-02T15:59:36.368Z,7.20
2023-03-02T16:02:05.281Z,7.60
2023-03-02T16:04:33.954Z,12.50
2023-03-02T16:07:02.551Z,13.80
2023-03-02T16:09:31.636Z,13.60
2023-03-02T16:12:00.214Z,11.30
2023-03-02T16:14:28.817Z,10.90
2023-03-02T16:16:57.473Z,11.30
2023-03-02T16:19:25.986Z,9.40
2023-03-02T16:21:54.394Z,10.30
2023-03-02T16:24:22.884Z,10.90
2023-03-02T16:26:53.373Z,13.50
2023-03-02T16:29:22.740Z,8.60
2023-03-02T16:31:51.412Z,9.40
2023-03-02T16:34:20.121Z,10.10
2023-03-02T16:36:48.676Z,9.10
2023-03-02T16:39:17.253Z,9.60
2023-03-02T16:41:46.430Z,13.90
2023-03-02T16:44:16.227Z,11.90
2023-03-02T16:46:45.144Z,12.70
2023-03-02T16:49:14.836Z,12.80
2023-03-02T16:51:43.960Z,12.10
2023-03-02T16:54:17.140Z,14.80
2023-03-02T16:56:47.695Z,19.10
2023-03-02T16:59:17.691Z,15.70
2023-03-02T17:01:46.325Z,17.90
2023-03-02T17:04:14.916Z,20.50
2023-03-02T17:07:02.896Z,19.70
2023-03-02T17:09:34.302Z,20.60
2023-03-02T17:12:03.286Z,15.30
2023-03-02T17:14:31.704Z,17.70
2023-03-02T17:17:01.525Z,18.50
2023-03-02T17:19:29.978Z,20.20
2023-03-02T17:22:03.268Z,27.10
2023-03-02T17:24:32.188Z,22.50
2023-03-02T17:27:01.068Z,22.30
2023-03-02T17:29:29.602Z,20.40
2023-03-02T17:31:58.169Z,22.00
2023-03-02T17:34:31.212Z,19.10
2023-03-02T17:37:00.887Z,22.60
2023-03-02T17:39:29.851Z,18.60
2023-03-02T17:41:58.470Z,15.70
2023-03-02T17:44:27.717Z,19.20
2023-03-02T17:46:56.276Z,12.70
2023-03-02T17:49:24.701Z,13.20
2023-03-02T17:51:53.216Z,19.60
2023-03-02T17:54:21.771Z,17.50
2023-03-02T17:56:50.354Z,16.70
2023-03-02T17:59:18.847Z,20.10
2023-03-02T18:01:47.418Z,20.90
2023-03-02T18:04:16.063Z,17.40
2023-03-02T18:06:44.572Z,21.10
2023-03-02T18:09:13.177Z,20.30
2023-03-02T18:11:42.532Z,18.10
2023-03-02T18:14:20.526Z,21.20
2023-03-02T18:16:49.007Z,18.80
2023-03-02T18:19:17.493Z,19.40
2023-03-02T18:21:46.049Z,18.50
2023-03-02T18:24:14.509Z,20.30
2023-03-02T18:26:42.945Z,20.80
2023-03-02T18:29:11.497Z,17.80
2023-03-02T18:31:40.046Z,17.00
2023-03-02T18:34:08.488Z,16.20
2023-03-02T18:36:37.032Z,12.90
2023-03-02T18:39:05.577Z,12.90
2023-03-02T18:41:34.111Z,15.50
2023-03-02T18:44:03.711Z,14.90
2023-03-02T18:46:33.425Z,15.80
2023-03-02T18:49:04.280Z,10.80
2023-03-02T18:51:32.730Z,17.50
2023-03-02T18:54:01.223Z,12.50
2023-03-02T18:56:29.813Z,15.60
2023-03-02T18:58:58.312Z,17.80
2023-03-02T19:01:31.639Z,15.10
2023-03-02T19:04:02.274Z,19.40
2023-03-02T19:06:31.722Z,18.20
2023-03-02T19:09:00.206Z,15.80
2023-03-02T19:11:28.722Z,17.40
2023-03-02T19:13:57.154Z,20.50
2023-03-02T19:16:25.632Z,20.20
2023-03-02T19:18:54.193Z,18.40
2023-03-02T19:21:22.634Z,22.10
2023-03-02T19:23:51.148Z,20.30
2023-03-02T19:26:20.268Z,25.50
2023-03-02T19:28:49.394Z,27.60
2023-03-02T19:31:17.960Z,32.10
2023-03-02T19:33:47.036Z,27.90
2023-03-02T19:36:15.457Z,34.80
2023-03-02T19:38:44.673Z,41.50
2023-03-02T19:41:19.896Z,33.90
2023-03-02T19:43:48.957Z,42.20
2023-03-02T19:46:18.488Z,31.00
2023-03-02T19:48:48.475Z,32.20
2023-03-02T19:51:17.075Z,40.90
2023-03-02T19:53:47.191Z,31.00
2023-03-02T19:56:17.800Z,32.10
2023-03-02T19:58:53.676Z,29.70
2023-03-02T20:01:25.089Z,34.90
2023-03-02T20:03:58.383Z,22.50
2023-03-02T20:06:34.541Z,27.90
2023-03-02T20:09:06.285Z,26.60
2023-03-02T20:11:34.879Z,22.80
2023-03-02T20:14:03.474Z,25.50
2023-03-02T20:16:35.412Z,31.50
2023-03-02T20:19:05.697Z,29.70
2023-03-02T20:21:35.280Z,31.10
2023-03-02T20:24:04.339Z,32.80
2023-03-02T20:26:33.332Z,24.50
2023-03-02T20:29:05.411Z,29.00
2023-03-02T20:31:35.586Z,29.60
2023-03-02T20:34:08.695Z,26.10
2023-03-02T20:36:37.512Z,22.80
2023-03-02T20:39:22.398Z,24.30
2023-03-02T20:41:51.420Z,22.00
2023-03-02T20:44:22.543Z,20.50
2023-03-02T20:46:57.706Z,20.30
2023-03-02T20:49:29.386Z,28.50
2023-03-02T20:51:59.505Z,28.10
2023-03-02T20:54:34.064Z,32.10
2023-03-02T20:57:02.922Z,32.00
2023-03-02T20:59:32.391Z,27.40
2023-03-02T21:02:01.540Z,36.40
2023-03-02T21:04:30.104Z,30.70
2023-03-02T21:06:59.100Z,25.60
2023-03-02T21:09:27.716Z,22.70
2023-03-02T21:11:58.860Z,25.60
2023-03-02T21:14:30.862Z,27.80
2023-03-02T21:17:00.930Z,27.50
2023-03-02T21:19:29.713Z,24.70
2023-03-02T21:21:58.722Z,25.80
2023-03-02T21:24:27.617Z,21.20
2023-03-02T21:26:56.402Z,22.30
2023-03-02T21:29:25.450Z,24.10
2023-03-02T21:31:54.134Z,22.10
2023-03-02T21:34:23.077Z,28.20
2023-03-02T21:36:54.774Z,22.50
2023-03-02T21:39:26.533Z,20.70
2023-03-02T21:41:55.033Z,26.70
2023-03-02T21:44:23.904Z,25.80
2023-03-02T21:46:52.393Z,24.30
2023-03-02T21:49:23.696Z,30.40
2023-03-02T21:51:52.224Z,23.60
2023-03-02T21:54:20.771Z,24.10
2023-03-02T21:56:49.533Z,23.00
2023-03-02T21:59:18.000Z,26.80
2023-03-02T22:01:46.584Z,28.90
2023-03-02T22:04:15.108Z,31.40
2023-03-02T22:06:43.547Z,28.10
2023-03-02T22:09:12.247Z,28.20
2023-03-02T22:11:40.727Z,32.10
2023-03-02T22:14:17.757Z,25.60
2023-03-02T22:16:48.273Z,24.70
2023-03-02T22:19:28.744Z,24.70
2023-03-02T22:22:00.379Z,25.30
2023-03-02T22:24:33.453Z,22.80
2023-03-02T22:27:05.030Z,24.40
2023-03-02T22:29:40.078Z,21.30
2023-03-02T22:32:21.086Z,27.10
2023-03-02T22:34:53.459Z,28.80
2023-03-02T22:37:25.693Z,28.30
2023-03-02T22:40:01.922Z,23.10
2023-03-02T22:42:31.107Z,21.90
2023-03-02T22:45:14.816Z,24.20
2023-03-02T22:47:45.505Z,21.50
2023-03-02T22:50:31.029Z,21.60
2023-03-02T22:53:07.163Z,24.40
2023-03-02T22:55:43.568Z,26.90
2023-03-02T22:58:18.059Z,24.20
2023-03-02T23:00:48.095Z,24.30
2023-03-02T23:03:19.963Z,25.70
2023-03-02T23:05:51.904Z,30.00
2023-03-02T23:08:27.132Z,31.20
2023-03-02T23:11:00.033Z,25.60
2023-03-02T23:13:40.388Z,26.80
2023-03-02T23:16:35.350Z,26.70
2023-03-02T23:19:04.578Z,25.00
2023-03-02T23:21:41.373Z,28.80
2023-03-02T23:24:10.053Z,30.00
2023-03-02T23:26:38.897Z,30.10
2023-03-02T23:29:07.596Z,35.40
2023-03-02T23:31:36.058Z,24.70
2023-03-02T23:34:05.774Z,30.60
2023-03-02T23:36:34.236Z,31.00
2023-03-02T23:39:02.789Z,32.90
2023-03-02T23:41:31.594Z,31.50
2023-03-02T23:44:00.257Z,27.90
2023-03-02T23:46:28.815Z,27.90
2023-03-02T23:48:57.981Z,28.30
2023-03-02T23:51:26.577Z,36.60
2023-03-02T23:53:55.400Z,29.20
2023-03-02T23:56:24.388Z,35.30
2023-03-02T23:58:52.984Z,26.20
